Aviation Digital Data Service (ADDS)

Output produced by METARs form (1957 UTC 25 July 2014)
found at http://aviationweather.gov/adds/metars/
 
KCAR 251728Z 2518/2618 26012KT P6SM BKN060 
     FM252300 24008KT P6SM SCT060 
     FM261400 22010G18KT P6SM BKN060